createdAt,value
2023-05-15T00:00:46.027Z,48.06
2023-05-15T00:03:17.983Z,48.01
2023-05-15T00:05:49.524Z,48.33
2023-05-15T00:08:21.516Z,49.06
2023-05-15T00:11:00.616Z,49.10
2023-05-15T00:13:33.367Z,49.77
2023-05-15T00:16:04.985Z,49.68
2023-05-15T00:18:36.470Z,49.11
2023-05-15T00:21:07.901Z,48.87
2023-05-15T00:23:39.461Z,48.82
2023-05-15T00:26:11.302Z,48.94
2023-05-15T00:28:42.809Z,48.96
2023-05-15T00:31:15.883Z,48.94
2023-05-15T00:33:48.049Z,49.27
2023-05-15T00:36:22.474Z,49.42
2023-05-15T00:38:56.018Z,49.56
2023-05-15T00:41:32.348Z,49.66
2023-05-15T00:44:04.193Z,49.67
2023-05-15T00:46:36.264Z,49.50
2023-05-15T00:49:13.752Z,49.43
2023-05-15T00:51:45.321Z,49.32
2023-05-15T00:54:16.686Z,49.92
2023-05-15T00:56:48.013Z,50.00
2023-05-15T00:59:21.203Z,49.95
2023-05-15T01:01:52.542Z,49.75
2023-05-15T01:04:23.978Z,49.64
2023-05-15T01:06:57.129Z,49.49
2023-05-15T01:09:29.048Z,49.54
2023-05-15T01:12:00.594Z,49.73
2023-05-15T01:14:31.973Z,49.94
2023-05-15T01:17:04.023Z,50.05
2023-05-15T01:19:38.943Z,50.18
2023-05-15T01:22:27.592Z,50.36
2023-05-15T01:25:15.681Z,50.52
2023-05-15T01:27:47.829Z,50.63
2023-05-15T01:30:22.752Z,50.48
2023-05-15T01:32:57.008Z,50.57
2023-05-15T01:35:31.324Z,50.64
2023-05-15T01:38:10.616Z,50.76
2023-05-15T01:40:42.092Z,50.80
2023-05-15T01:43:17.162Z,51.07
2023-05-15T01:45:48.574Z,51.16
2023-05-15T01:48:19.870Z,51.36
2023-05-15T01:50:51.339Z,51.25
2023-05-15T01:53:23.118Z,51.55
2023-05-15T01:55:56.718Z,51.68
2023-05-15T01:58:28.291Z,52.18
2023-05-15T02:00:59.721Z,52.25
2023-05-15T02:03:31.322Z,51.85
2023-05-15T02:06:01.283Z,51.39
2023-05-15T02:08:32.681Z,51.37
2023-05-15T02:11:04.249Z,51.30
2023-05-15T02:13:35.760Z,51.82
2023-05-15T02:16:07.920Z,52.01
2023-05-15T02:18:39.578Z,51.93
2023-05-15T02:21:10.931Z,52.02
2023-05-15T02:23:42.307Z,52.59
2023-05-15T02:26:22.248Z,52.25
2023-05-15T02:28:59.727Z,51.47
2023-05-15T02:31:35.199Z,50.67
2023-05-15T02:34:10.785Z,50.80
2023-05-15T02:36:43.603Z,51.46
2023-05-15T02:39:14.903Z,51.76
2023-05-15T02:41:46.322Z,51.96
2023-05-15T02:44:18.063Z,52.26
2023-05-15T02:46:47.871Z,52.63
2023-05-15T02:49:19.280Z,52.81
2023-05-15T02:51:50.905Z,52.57
2023-05-15T02:54:22.478Z,52.58
2023-05-15T02:56:53.930Z,52.77
2023-05-15T02:59:25.370Z,53.05
2023-05-15T03:01:56.863Z,52.99
2023-05-15T03:04:28.339Z,53.09
2023-05-15T03:06:59.775Z,53.26
2023-05-15T03:09:31.268Z,53.19
2023-05-15T03:12:02.747Z,53.29
2023-05-15T03:14:34.254Z,53.70
2023-05-15T03:17:06.064Z,53.60
2023-05-15T03:19:35.873Z,53.70
2023-05-15T03:22:07.585Z,53.45
2023-05-15T03:24:39.422Z,53.24
2023-05-15T03:27:09.349Z,53.57
2023-05-15T03:29:41.280Z,54.24
2023-05-15T03:32:13.087Z,53.83
2023-05-15T03:34:45.024Z,54.01
2023-05-15T03:37:16.547Z,53.93
2023-05-15T03:39:47.984Z,52.91
2023-05-15T03:42:23.734Z,52.16
2023-05-15T03:44:56.367Z,52.07
2023-05-15T03:47:28.044Z,51.80
2023-05-15T03:49:59.928Z,53.75
2023-05-15T03:52:29.774Z,56.14
2023-05-15T03:55:01.237Z,59.65
2023-05-15T03:57:33.533Z,58.46
2023-05-15T04:00:10.463Z,57.37
2023-05-15T04:02:44.783Z,57.49
2023-05-15T04:05:16.301Z,58.22
2023-05-15T04:07:46.214Z,61.76
2023-05-15T04:10:17.881Z,61.59
2023-05-15T04:12:48.046Z,62.17
2023-05-15T04:15:20.206Z,63.42
2023-05-15T04:17:53.165Z,65.14
2023-05-15T04:20:25.497Z,65.28
2023-05-15T04:22:57.053Z,66.10
2023-05-15T04:25:28.689Z,66.97
2023-05-15T04:27:58.573Z,67.19
2023-05-15T04:30:30.061Z,67.24
2023-05-15T04:33:01.490Z,67.15
2023-05-15T04:35:31.381Z,66.04
2023-05-15T04:38:03.567Z,65.47
2023-05-15T04:40:35.018Z,64.57
2023-05-15T04:43:06.636Z,63.07
2023-05-15T04:45:36.376Z,62.53
2023-05-15T04:48:08.564Z,62.19
2023-05-15T04:50:40.179Z,61.63
2023-05-15T04:53:10.067Z,61.50
2023-05-15T04:55:41.504Z,61.50
2023-05-15T04:58:13.025Z,62.44
2023-05-15T05:00:44.313Z,62.31
2023-05-15T05:03:15.889Z,61.82
2023-05-15T05:05:45.853Z,61.58
2023-05-15T05:08:17.110Z,61.38
2023-05-15T05:10:48.495Z,60.24
2023-05-15T05:13:19.889Z,59.68
2023-05-15T05:15:51.307Z,59.17
2023-05-15T05:18:22.626Z,58.45
2023-05-15T05:20:54.043Z,58.01
2023-05-15T05:23:25.359Z,57.59
2023-05-15T05:25:56.837Z,57.28
2023-05-15T05:28:28.365Z,56.95
2023-05-15T05:30:59.806Z,56.49
2023-05-15T05:33:31.122Z,56.42
2023-05-15T05:36:02.627Z,56.31
2023-05-15T05:38:34.173Z,56.23
2023-05-15T05:41:05.660Z,55.70
2023-05-15T05:43:37.285Z,55.44
2023-05-15T05:46:09.073Z,55.29
2023-05-15T05:48:38.767Z,55.08
2023-05-15T05:51:10.192Z,54.72
2023-05-15T05:53:41.636Z,54.55
2023-05-15T05:56:13.407Z,54.51
2023-05-15T05:58:44.873Z,53.56
2023-05-15T06:01:16.711Z,52.66
2023-05-15T06:03:48.267Z,51.65
2023-05-15T06:06:18.209Z,51.74
2023-05-15T06:08:49.893Z,51.03
2023-05-15T06:11:23.717Z,50.73
2023-05-15T06:13:56.925Z,50.72
2023-05-15T06:16:28.540Z,50.39
2023-05-15T06:18:58.441Z,50.64
2023-05-15T06:21:29.860Z,49.64
2023-05-15T06:24:01.223Z,49.15
2023-05-15T06:26:32.677Z,49.05
2023-05-15T06:29:04.340Z,48.88
2023-05-15T06:31:34.144Z,48.35
2023-05-15T06:34:05.589Z,48.27
2023-05-15T06:36:37.007Z,48.03
2023-05-15T06:39:10.866Z,47.22
2023-05-15T06:41:42.318Z,46.18
2023-05-15T06:44:16.512Z,45.51
2023-05-15T06:46:46.463Z,44.87
2023-05-15T06:49:18.068Z,44.28
2023-05-15T06:51:49.469Z,43.58
2023-05-15T06:54:20.850Z,42.56
2023-05-15T06:56:52.413Z,41.50
2023-05-15T06:59:23.775Z,40.78
2023-05-15T07:01:56.244Z,40.20
2023-05-15T07:04:28.056Z,39.93
2023-05-15T07:06:59.513Z,39.23
2023-05-15T07:09:31.169Z,38.47
2023-05-15T07:12:00.948Z,38.36
2023-05-15T07:14:32.418Z,37.24
2023-05-15T07:17:04.496Z,36.58
2023-05-15T07:19:34.462Z,36.87
2023-05-15T07:22:06.405Z,35.69
2023-05-15T07:24:40.455Z,35.17
2023-05-15T07:27:12.318Z,34.64
2023-05-15T07:29:44.069Z,33.64
2023-05-15T07:32:16.333Z,33.34
2023-05-15T07:34:48.201Z,32.26
2023-05-15T07:37:19.626Z,31.60
2023-05-15T07:39:51.237Z,31.42
2023-05-15T07:42:21.017Z,30.64
2023-05-15T07:44:52.852Z,30.45
2023-05-15T07:47:24.233Z,30.40
2023-05-15T07:49:56.102Z,30.36
2023-05-15T07:52:27.563Z,30.16
2023-05-15T07:54:59.371Z,29.95
2023-05-15T07:57:32.124Z,29.23
2023-05-15T08:00:10.553Z,29.70
2023-05-15T08:02:46.527Z,29.39
2023-05-15T08:05:19.005Z,29.85
2023-05-15T08:07:50.394Z,29.13
2023-05-15T08:10:21.903Z,29.02
2023-05-15T08:12:53.290Z,29.04
2023-05-15T08:15:25.522Z,28.81
2023-05-15T08:17:57.224Z,28.80
2023-05-15T08:20:28.980Z,28.37
2023-05-15T08:23:00.278Z,28.51
2023-05-15T08:25:31.748Z,28.71
2023-05-15T08:28:03.183Z,28.77
2023-05-15T08:30:32.944Z,28.84
2023-05-15T08:33:04.551Z,28.78
2023-05-15T08:35:36.014Z,28.75
2023-05-15T08:38:05.969Z,28.89
2023-05-15T08:40:40.114Z,29.33
2023-05-15T08:43:15.376Z,28.91
2023-05-15T08:45:46.871Z,28.89
2023-05-15T08:48:17.919Z,28.22
2023-05-15T08:50:49.882Z,27.93
2023-05-15T08:53:21.301Z,27.69
2023-05-15T08:55:51.043Z,27.47
2023-05-15T08:58:26.356Z,27.57
2023-05-15T09:00:57.918Z,27.69
2023-05-15T09:03:27.680Z,27.80
2023-05-15T09:05:59.150Z,27.99
2023-05-15T09:08:30.655Z,28.47
2023-05-15T09:11:02.111Z,28.52
2023-05-15T09:13:32.439Z,29.13
2023-05-15T09:16:03.855Z,29.17
2023-05-15T09:18:35.309Z,29.46
2023-05-15T09:21:27.610Z,29.36
2023-05-15T09:24:16.671Z,29.63
2023-05-15T09:26:48.490Z,29.73
2023-05-15T09:29:20.542Z,29.68
2023-05-15T09:31:52.225Z,29.18
2023-05-15T09:34:25.030Z,28.75
2023-05-15T09:36:56.469Z,28.40
2023-05-15T09:39:26.375Z,27.74
2023-05-15T09:41:58.167Z,28.06
2023-05-15T09:44:29.822Z,27.39
2023-05-15T09:47:01.703Z,26.92
2023-05-15T09:49:33.523Z,26.77
2023-05-15T09:52:04.931Z,26.12
2023-05-15T09:54:35.448Z,26.35
2023-05-15T09:57:13.161Z,26.08
2023-05-15T09:59:48.099Z,25.35
2023-05-15T10:02:28.293Z,25.78
2023-05-15T10:05:00.410Z,25.79
2023-05-15T10:07:32.818Z,24.98
2023-05-15T10:10:04.580Z,25.30
2023-05-15T10:12:36.965Z,25.22
2023-05-15T10:15:10.052Z,24.17
2023-05-15T10:17:41.700Z,24.38
2023-05-15T10:20:14.595Z,24.01
2023-05-15T10:22:50.589Z,24.20
2023-05-15T10:25:28.163Z,24.36
2023-05-15T10:27:59.536Z,23.05
2023-05-15T10:30:29.304Z,22.62
2023-05-15T10:33:00.865Z,22.84
2023-05-15T10:35:32.495Z,22.76
2023-05-15T10:38:04.103Z,22.95
2023-05-15T10:40:35.557Z,22.47
2023-05-15T10:43:07.104Z,22.52
2023-05-15T10:45:38.610Z,22.43
2023-05-15T10:48:12.674Z,22.90
2023-05-15T10:50:44.221Z,22.80
2023-05-15T10:53:16.485Z,22.25
2023-05-15T10:55:48.115Z,22.66
2023-05-15T10:58:20.040Z,22.60
2023-05-15T11:00:51.596Z,22.90
2023-05-15T11:03:48.649Z,22.54
2023-05-15T11:06:21.028Z,22.75
2023-05-15T11:08:52.564Z,22.13
2023-05-15T11:11:59.105Z,21.29
2023-05-15T11:14:30.848Z,21.21
2023-05-15T11:17:04.194Z,21.08
2023-05-15T11:19:37.515Z,21.42
2023-05-15T11:22:21.060Z,21.71
2023-05-15T11:24:54.989Z,21.63
2023-05-15T11:27:27.389Z,21.41
2023-05-15T11:30:16.125Z,21.59
2023-05-15T11:32:52.139Z,21.59
2023-05-15T11:35:25.389Z,22.72
2023-05-15T11:37:57.851Z,22.15
2023-05-15T11:40:31.276Z,21.67
2023-05-15T11:43:07.998Z,21.81
2023-05-15T11:45:40.218Z,21.73
2023-05-15T11:48:14.425Z,21.83
2023-05-15T11:50:46.094Z,22.14
2023-05-15T11:53:17.692Z,22.07
2023-05-15T11:55:49.098Z,22.46
2023-05-15T11:58:21.669Z,23.06
2023-05-15T12:00:53.992Z,24.48
2023-05-15T12:03:27.699Z,24.07
2023-05-15T12:06:00.424Z,23.84
2023-05-15T12:08:36.475Z,24.27
2023-05-15T12:11:07.977Z,24.49
2023-05-15T12:13:39.658Z,25.14
2023-05-15T12:16:11.420Z,25.40
2023-05-15T12:18:43.048Z,25.20
2023-05-15T12:21:14.659Z,24.96
2023-05-15T12:24:03.523Z,24.95
2023-05-15T12:26:38.925Z,24.46
2023-05-15T12:29:10.346Z,24.15
2023-05-15T12:31:41.891Z,23.97
2023-05-15T12:34:13.650Z,24.40
2023-05-15T12:36:46.329Z,24.84
2023-05-15T12:39:18.293Z,25.20
2023-05-15T12:41:54.592Z,25.19
2023-05-15T12:44:26.208Z,25.55
2023-05-15T12:46:56.908Z,25.48
2023-05-15T12:49:28.404Z,25.45
2023-05-15T12:51:58.101Z,25.52
2023-05-15T12:54:29.556Z,25.70
2023-05-15T12:57:02.224Z,25.71
2023-05-15T12:59:33.736Z,25.69
2023-05-15T13:02:03.440Z,26.02
2023-05-15T13:04:37.252Z,26.14
2023-05-15T13:07:09.810Z,26.14
2023-05-15T13:09:42.320Z,26.09
2023-05-15T13:12:14.859Z,26.08
2023-05-15T13:14:46.915Z,26.12
2023-05-15T13:17:18.500Z,26.26
2023-05-15T13:19:48.210Z,26.12
2023-05-15T13:22:19.716Z,26.09
2023-05-15T13:24:49.525Z,25.69
2023-05-15T13:27:21.068Z,24.85
2023-05-15T13:29:55.104Z,24.62
2023-05-15T13:32:26.555Z,24.62
2023-05-15T13:34:59.018Z,24.39
2023-05-15T13:37:30.525Z,24.09
2023-05-15T13:40:02.211Z,24.11
2023-05-15T13:42:33.707Z,24.01
2023-05-15T13:45:06.187Z,23.75
2023-05-15T13:47:39.626Z,23.69
2023-05-15T13:50:12.940Z,23.70
2023-05-15T13:52:45.017Z,23.50
2023-05-15T13:55:16.493Z,23.47
2023-05-15T13:57:48.315Z,23.42
2023-05-15T14:00:21.730Z,23.36
2023-05-15T14:02:53.818Z,23.53
2023-05-15T14:05:25.257Z,23.57
2023-05-15T14:07:55.164Z,23.32
2023-05-15T14:10:27.067Z,23.17
2023-05-15T14:13:00.724Z,22.95
2023-05-15T14:15:32.547Z,23.04
2023-05-15T14:18:02.205Z,22.92
2023-05-15T14:20:33.646Z,23.11
2023-05-15T14:23:04.963Z,23.17
2023-05-15T14:25:36.527Z,22.97
2023-05-15T14:28:07.935Z,22.84
2023-05-15T14:30:39.326Z,22.79
2023-05-15T14:33:09.328Z,22.68
2023-05-15T14:35:40.755Z,22.62
2023-05-15T14:38:12.450Z,22.46
2023-05-15T14:40:44.118Z,22.66
2023-05-15T14:43:15.683Z,22.93
2023-05-15T14:45:47.184Z,22.66
2023-05-15T14:48:18.644Z,22.59
2023-05-15T14:50:49.955Z,22.82
2023-05-15T14:53:21.512Z,22.87
2023-05-15T14:55:52.924Z,22.91
2023-05-15T14:58:25.345Z,22.85
2023-05-15T15:00:56.862Z,23.00
2023-05-15T15:03:29.488Z,23.18
2023-05-15T15:06:02.765Z,23.25
2023-05-15T15:08:34.125Z,23.25
2023-05-15T15:11:06.490Z,23.19
2023-05-15T15:13:38.117Z,23.30
2023-05-15T15:16:11.145Z,23.34
2023-05-15T15:18:43.077Z,23.43
2023-05-15T15:21:14.977Z,23.47
2023-05-15T15:23:46.551Z,23.68
2023-05-15T15:26:18.129Z,23.95
2023-05-15T15:28:49.697Z,23.73
2023-05-15T15:31:22.130Z,23.55
2023-05-15T15:33:53.572Z,23.59
2023-05-15T15:36:25.891Z,23.47
2023-05-15T15:38:57.888Z,23.22
2023-05-15T15:41:29.818Z,23.18
2023-05-15T15:44:01.636Z,23.37
2023-05-15T15:46:33.067Z,23.45
2023-05-15T15:49:04.473Z,23.51
2023-05-15T15:51:38.007Z,23.64
2023-05-15T15:54:09.413Z,23.64
2023-05-15T15:56:39.078Z,23.63
2023-05-15T15:59:10.765Z,23.67
2023-05-15T16:01:42.288Z,23.75
2023-05-15T16:04:13.946Z,24.02
2023-05-15T16:06:45.858Z,24.24
2023-05-15T16:09:15.562Z,24.46
2023-05-15T16:11:47.101Z,24.64
2023-05-15T16:14:18.896Z,24.81
2023-05-15T16:16:50.345Z,25.00
2023-05-15T16:19:21.982Z,25.20
2023-05-15T16:21:53.897Z,25.41
2023-05-15T16:24:25.727Z,25.59
2023-05-15T16:26:57.467Z,25.86
2023-05-15T16:29:29.439Z,25.93
2023-05-15T16:32:01.799Z,26.16
2023-05-15T16:34:34.687Z,26.37
2023-05-15T16:37:06.655Z,26.36
2023-05-15T16:39:39.854Z,26.58
2023-05-15T16:42:12.113Z,26.86
2023-05-15T16:44:43.829Z,27.04
2023-05-15T16:47:15.187Z,27.33
2023-05-15T16:49:49.114Z,27.42
2023-05-15T16:52:21.570Z,27.66
2023-05-15T16:54:52.942Z,27.92
2023-05-15T16:57:24.355Z,28.04
2023-05-15T16:59:55.713Z,28.33
2023-05-15T17:02:27.155Z,28.50
2023-05-15T17:04:57.043Z,28.57
2023-05-15T17:07:29.073Z,28.64
2023-05-15T17:09:59.054Z,28.88
2023-05-15T17:12:30.864Z,28.96
2023-05-15T17:15:00.859Z,29.18
2023-05-15T17:17:32.577Z,29.08
2023-05-15T17:20:03.242Z,29.29
2023-05-15T17:22:34.996Z,29.19
2023-05-15T17:25:07.432Z,29.29
2023-05-15T17:27:41.615Z,29.36
2023-05-15T17:30:14.345Z,29.65
2023-05-15T17:32:45.853Z,29.64
2023-05-15T17:35:17.783Z,29.91
2023-05-15T17:37:49.205Z,30.14
2023-05-15T17:40:20.867Z,30.31
2023-05-15T17:42:52.463Z,30.28
2023-05-15T17:45:24.396Z,30.22
2023-05-15T17:48:02.783Z,30.27
2023-05-15T17:50:38.192Z,30.24
2023-05-15T17:53:10.011Z,30.33
2023-05-15T17:55:40.053Z,30.35
2023-05-15T17:58:11.970Z,30.33
2023-05-15T18:00:43.351Z,30.42
2023-05-15T18:03:15.042Z,30.54
2023-05-15T18:05:47.782Z,30.61
2023-05-15T18:08:19.429Z,30.76
2023-05-15T18:10:49.240Z,30.73
2023-05-15T18:13:20.681Z,30.73
2023-05-15T18:15:52.192Z,30.78
2023-05-15T18:18:23.084Z,30.60
2023-05-15T18:20:54.564Z,30.47
2023-05-15T18:23:26.038Z,30.55
2023-05-15T18:25:57.395Z,30.71
2023-05-15T18:28:29.250Z,30.71
2023-05-15T18:31:00.842Z,30.74
2023-05-15T18:33:30.832Z,30.70
2023-05-15T18:36:02.498Z,30.61
2023-05-15T18:38:34.634Z,30.66
2023-05-15T18:41:06.803Z,30.60
2023-05-15T18:43:38.248Z,30.70
2023-05-15T18:46:10.061Z,30.83
2023-05-15T18:48:41.451Z,30.89
2023-05-15T18:51:13.722Z,30.94
2023-05-15T18:53:45.061Z,31.08
2023-05-15T18:56:16.529Z,31.16
2023-05-15T18:58:50.090Z,31.22
2023-05-15T19:01:22.304Z,31.33
2023-05-15T19:03:53.985Z,31.54
2023-05-15T19:06:25.369Z,31.60
2023-05-15T19:08:56.835Z,31.75
2023-05-15T19:11:28.672Z,31.82
2023-05-15T19:14:00.264Z,32.00
2023-05-15T19:16:32.345Z,32.13
2023-05-15T19:19:03.765Z,32.35
2023-05-15T19:21:35.571Z,32.46
2023-05-15T19:24:07.398Z,32.54
2023-05-15T19:26:38.866Z,33.07
2023-05-15T19:29:10.329Z,33.19
2023-05-15T19:31:41.819Z,33.56
2023-05-15T19:34:13.798Z,34.21
2023-05-15T19:36:46.816Z,34.23
2023-05-15T19:39:18.263Z,34.34
2023-05-15T19:41:49.631Z,34.34
2023-05-15T19:44:21.010Z,34.41
2023-05-15T19:46:53.934Z,34.26
2023-05-15T19:49:26.073Z,34.21
2023-05-15T19:51:57.425Z,34.27
2023-05-15T19:54:29.050Z,34.38
2023-05-15T19:56:58.853Z,34.49
2023-05-15T19:59:30.338Z,34.27
2023-05-15T20:02:03.091Z,34.34
2023-05-15T20:04:34.894Z,34.34
2023-05-15T20:07:06.511Z,34.40
2023-05-15T20:09:39.386Z,34.42
2023-05-15T20:12:11.275Z,34.90
2023-05-15T20:14:42.227Z,35.06
2023-05-15T20:17:13.519Z,35.28
2023-05-15T20:19:44.984Z,35.21
2023-05-15T20:22:16.360Z,35.07
2023-05-15T20:24:48.337Z,34.98
2023-05-15T20:27:20.204Z,34.86
2023-05-15T20:29:51.673Z,34.90
2023-05-15T20:32:23.147Z,34.92
2023-05-15T20:34:56.170Z,34.92
2023-05-15T20:37:28.189Z,34.91
2023-05-15T20:40:00.538Z,34.91
2023-05-15T20:42:32.655Z,34.98
2023-05-15T20:45:05.437Z,35.04
2023-05-15T20:47:36.937Z,35.24
2023-05-15T20:50:09.742Z,35.50
2023-05-15T20:52:41.052Z,35.79
2023-05-15T20:55:16.464Z,36.16
2023-05-15T20:57:48.129Z,36.47
2023-05-15T21:00:18.509Z,36.69
2023-05-15T21:02:49.991Z,36.97
2023-05-15T21:05:21.600Z,37.13
2023-05-15T21:07:53.261Z,37.34
2023-05-15T21:10:24.946Z,37.65
2023-05-15T21:12:59.088Z,37.95
2023-05-15T21:15:30.917Z,38.32
2023-05-15T21:18:02.289Z,38.58
2023-05-15T21:20:35.164Z,38.85
2023-05-15T21:23:06.834Z,39.09
2023-05-15T21:25:38.172Z,39.31
2023-05-15T21:28:09.635Z,39.46
2023-05-15T21:30:41.352Z,39.68
2023-05-15T21:33:11.039Z,39.95
2023-05-15T21:35:42.465Z,40.21
2023-05-15T21:38:13.813Z,40.39
2023-05-15T21:40:45.777Z,40.68
2023-05-15T21:43:17.116Z,40.94
2023-05-15T21:45:48.423Z,41.13
2023-05-15T21:48:19.772Z,41.26
2023-05-15T21:50:51.121Z,41.49
2023-05-15T21:53:22.990Z,41.66
2023-05-15T21:56:04.082Z,41.99
2023-05-15T21:58:35.564Z,42.14
2023-05-15T22:01:07.285Z,42.27
2023-05-15T22:03:38.675Z,42.40
2023-05-15T22:06:10.332Z,42.32
2023-05-15T22:08:41.706Z,42.41
2023-05-15T22:11:14.190Z,42.46
2023-05-15T22:13:45.534Z,42.53
2023-05-15T22:16:17.125Z,42.50
2023-05-15T22:18:48.863Z,42.51
2023-05-15T22:21:18.651Z,42.25
2023-05-15T22:23:50.045Z,41.98
2023-05-15T22:26:21.872Z,41.74
2023-05-15T22:28:56.697Z,41.62
2023-05-15T22:31:28.633Z,41.84
2023-05-15T22:34:00.036Z,41.95
2023-05-15T22:36:32.319Z,42.07
2023-05-15T22:39:04.451Z,42.40
2023-05-15T22:41:36.101Z,42.23
2023-05-15T22:44:07.567Z,42.00
2023-05-15T22:46:38.994Z,41.82
2023-05-15T22:49:19.377Z,42.06
2023-05-15T22:51:50.920Z,42.56
2023-05-15T22:54:23.316Z,42.35
2023-05-15T22:56:55.298Z,42.31
2023-05-15T22:59:26.691Z,42.38
2023-05-15T23:01:58.263Z,42.67
2023-05-15T23:04:29.895Z,42.77
2023-05-15T23:06:59.649Z,42.72
2023-05-15T23:09:31.014Z,42.67
2023-05-15T23:12:02.500Z,42.55
2023-05-15T23:14:34.476Z,42.61
2023-05-15T23:17:06.035Z,42.41
2023-05-15T23:19:37.395Z,42.27
2023-05-15T23:22:08.836Z,42.13
2023-05-15T23:24:40.298Z,42.07
2023-05-15T23:27:11.736Z,41.97
2023-05-15T23:29:43.355Z,41.99
2023-05-15T23:32:14.875Z,41.97
2023-05-15T23:34:46.597Z,41.95
2023-05-15T23:37:18.093Z,41.93
2023-05-15T23:39:49.434Z,41.85
2023-05-15T23:42:20.913Z,41.89
2023-05-15T23:44:52.305Z,41.90
2023-05-15T23:47:23.835Z,41.87
2023-05-15T23:49:55.307Z,41.84
2023-05-15T23:52:26.712Z,41.85
2023-05-15T23:54:58.093Z,41.81
2023-05-15T23:57:29.518Z,41.83
